sensor_id;sensor_type;location;lat;lon;timestamp;P1;durP1;ratioP1;P2;durP2;ratioP2
2173;SDS011;1093;51.424;11.764;2023-04-24T00:00:19;1.93;;;1.67;;
2173;SDS011;1093;51.424;11.764;2023-04-24T00:02:46;1.60;;;1.50;;
2173;SDS011;1093;51.424;11.764;2023-04-24T00:05:13;1.67;;;1.57;;
2173;SDS011;1093;51.424;11.764;2023-04-24T00:07:42;1.90;;;1.80;;
2173;SDS011;1093;51.424;11.764;2023-04-24T00:10:10;2.43;;;1.37;;
2173;SDS011;1093;51.424;11.764;2023-04-24T00:12:37;3.00;;;1.63;;
2173;SDS011;1093;51.424;11.764;2023-04-24T00:15:05;3.20;;;1.83;;
2173;SDS011;1093;51.424;11.764;2023-04-24T00:17:33;2.33;;;1.50;;
2173;SDS011;1093;51.424;11.764;2023-04-24T00:20:00;1.63;;;1.33;;
2173;SDS011;1093;51.424;11.764;2023-04-24T00:22:29;1.77;;;1.67;;
2173;SDS011;1093;51.424;11.764;2023-04-24T00:24:57;1.67;;;1.57;;
2173;SDS011;1093;51.424;11.764;2023-04-24T00:27:23;1.23;;;1.13;;
2173;SDS011;1093;51.424;11.764;2023-04-24T00:29:50;2.50;;;1.70;;
2173;SDS011;1093;51.424;11.764;2023-04-24T00:32:17;1.70;;;1.20;;
2173;SDS011;1093;51.424;11.764;2023-04-24T00:34:45;1.60;;;1.50;;
2173;SDS011;1093;51.424;11.764;2023-04-24T00:37:12;1.90;;;1.43;;
2173;SDS011;1093;51.424;11.764;2023-04-24T00:39:38;2.30;;;1.30;;
2173;SDS011;1093;51.424;11.764;2023-04-24T00:42:05;1.40;;;1.30;;
2173;SDS011;1093;51.424;11.764;2023-04-24T00:44:32;1.50;;;1.40;;
2173;SDS011;1093;51.424;11.764;2023-04-24T00:47:01;2.60;;;1.60;;
2173;SDS011;1093;51.424;11.764;2023-04-24T00:49:28;2.03;;;1.40;;
2173;SDS011;1093;51.424;11.764;2023-04-24T00:51:56;2.40;;;1.67;;
2173;SDS011;1093;51.424;11.764;2023-04-24T00:54:24;1.40;;;1.30;;
2173;SDS011;1093;51.424;11.764;2023-04-24T00:56:51;1.60;;;1.47;;
2173;SDS011;1093;51.424;11.764;2023-04-24T00:59:17;1.67;;;1.57;;
2173;SDS011;1093;51.424;11.764;2023-04-24T01:01:44;2.37;;;1.87;;
2173;SDS011;1093;51.424;11.764;2023-04-24T01:04:11;1.77;;;1.67;;
2173;SDS011;1093;51.424;11.764;2023-04-24T01:06:39;2.20;;;1.50;;
2173;SDS011;1093;51.424;11.764;2023-04-24T01:09:07;2.07;;;1.50;;
2173;SDS011;1093;51.424;11.764;2023-04-24T01:11:36;3.33;;;1.70;;
2173;SDS011;1093;51.424;11.764;2023-04-24T01:14:03;2.23;;;1.60;;
2173;SDS011;1093;51.424;11.764;2023-04-24T01:16:30;1.40;;;1.30;;
2173;SDS011;1093;51.424;11.764;2023-04-24T01:18:56;2.60;;;1.60;;
2173;SDS011;1093;51.424;11.764;2023-04-24T01:21:23;2.60;;;1.53;;
2173;SDS011;1093;51.424;11.764;2023-04-24T01:23:55;1.13;;;1.03;;
2173;SDS011;1093;51.424;11.764;2023-04-24T01:26:22;3.83;;;1.90;;
2173;SDS011;1093;51.424;11.764;2023-04-24T01:28:50;3.57;;;1.70;;
2173;SDS011;1093;51.424;11.764;2023-04-24T01:31:17;3.93;;;2.10;;
2173;SDS011;1093;51.424;11.764;2023-04-24T01:33:44;1.70;;;1.50;;
2173;SDS011;1093;51.424;11.764;2023-04-24T01:36:11;3.33;;;1.87;;
2173;SDS011;1093;51.424;11.764;2023-04-24T01:38:38;2.10;;;1.90;;
2173;SDS011;1093;51.424;11.764;2023-04-24T01:41:06;2.13;;;1.77;;
2173;SDS011;1093;51.424;11.764;2023-04-24T01:43:32;3.60;;;1.27;;
2173;SDS011;1093;51.424;11.764;2023-04-24T01:45:59;1.83;;;1.60;;
2173;SDS011;1093;51.424;11.764;2023-04-24T01:48:26;2.50;;;2.30;;
2173;SDS011;1093;51.424;11.764;2023-04-24T01:50:53;2.20;;;2.00;;
2173;SDS011;1093;51.424;11.764;2023-04-24T01:53:20;2.60;;;2.00;;
2173;SDS011;1093;51.424;11.764;2023-04-24T01:55:46;2.20;;;2.00;;
2173;SDS011;1093;51.424;11.764;2023-04-24T01:58:14;2.47;;;1.80;;
2173;SDS011;1093;51.424;11.764;2023-04-24T02:00:41;2.40;;;2.10;;
2173;SDS011;1093;51.424;11.764;2023-04-24T02:03:08;2.20;;;2.00;;
2173;SDS011;1093;51.424;11.764;2023-04-24T02:05:34;3.90;;;2.47;;
2173;SDS011;1093;51.424;11.764;2023-04-24T02:08:01;2.90;;;2.20;;
2173;SDS011;1093;51.424;11.764;2023-04-24T02:10:28;2.47;;;2.20;;
2173;SDS011;1093;51.424;11.764;2023-04-24T02:12:54;1.90;;;1.80;;
2173;SDS011;1093;51.424;11.764;2023-04-24T02:15:22;3.37;;;1.80;;
2173;SDS011;1093;51.424;11.764;2023-04-24T02:17:49;2.10;;;1.90;;
2173;SDS011;1093;51.424;11.764;2023-04-24T02:20:16;1.80;;;1.70;;
2173;SDS011;1093;51.424;11.764;2023-04-24T02:22:43;2.10;;;1.90;;
2173;SDS011;1093;51.424;11.764;2023-04-24T02:25:10;2.17;;;1.97;;
2173;SDS011;1093;51.424;11.764;2023-04-24T02:27:37;2.20;;;2.00;;
2173;SDS011;1093;51.424;11.764;2023-04-24T02:30:04;2.10;;;1.70;;
2173;SDS011;1093;51.424;11.764;2023-04-24T02:32:33;2.10;;;1.73;;
2173;SDS011;1093;51.424;11.764;2023-04-24T02:35:00;2.00;;;1.87;;
2173;SDS011;1093;51.424;11.764;2023-04-24T02:37:27;3.87;;;2.30;;
2173;SDS011;1093;51.424;11.764;2023-04-24T02:39:54;1.73;;;1.63;;
2173;SDS011;1093;51.424;11.764;2023-04-24T02:42:20;1.83;;;1.70;;
2173;SDS011;1093;51.424;11.764;2023-04-24T02:44:47;2.17;;;1.93;;
2173;SDS011;1093;51.424;11.764;2023-04-24T02:47:16;2.40;;;1.70;;
2173;SDS011;1093;51.424;11.764;2023-04-24T02:49:44;3.03;;;2.03;;
2173;SDS011;1093;51.424;11.764;2023-04-24T02:52:11;2.13;;;1.93;;
2173;SDS011;1093;51.424;11.764;2023-04-24T02:54:38;2.97;;;1.83;;
2173;SDS011;1093;51.424;11.764;2023-04-24T02:57:04;3.50;;;1.63;;
2173;SDS011;1093;51.424;11.764;2023-04-24T02:59:31;2.10;;;2.00;;
2173;SDS011;1093;51.424;11.764;2023-04-24T03:01:58;2.07;;;1.87;;
2173;SDS011;1093;51.424;11.764;2023-04-24T03:04:25;3.00;;;2.10;;
2173;SDS011;1093;51.424;11.764;2023-04-24T03:06:53;2.30;;;2.10;;
2173;SDS011;1093;51.424;11.764;2023-04-24T03:09:20;2.57;;;2.10;;
2173;SDS011;1093;51.424;11.764;2023-04-24T03:11:46;2.13;;;2.03;;
2173;SDS011;1093;51.424;11.764;2023-04-24T03:14:14;2.37;;;2.17;;
2173;SDS011;1093;51.424;11.764;2023-04-24T03:16:41;2.10;;;1.90;;
2173;SDS011;1093;51.424;11.764;2023-04-24T03:19:10;1.73;;;1.63;;
2173;SDS011;1093;51.424;11.764;2023-04-24T03:21:37;3.90;;;2.07;;
2173;SDS011;1093;51.424;11.764;2023-04-24T03:24:06;2.53;;;1.93;;
2173;SDS011;1093;51.424;11.764;2023-04-24T03:26:33;1.80;;;1.70;;
2173;SDS011;1093;51.424;11.764;2023-04-24T03:29:00;2.10;;;1.67;;
2173;SDS011;1093;51.424;11.764;2023-04-24T03:31:27;3.63;;;2.30;;
2173;SDS011;1093;51.424;11.764;2023-04-24T03:33:53;2.20;;;2.00;;
2173;SDS011;1093;51.424;11.764;2023-04-24T03:36:20;3.63;;;2.00;;
2173;SDS011;1093;51.424;11.764;2023-04-24T03:38:47;2.50;;;2.30;;
2173;SDS011;1093;51.424;11.764;2023-04-24T03:41:15;2.57;;;2.30;;
2173;SDS011;1093;51.424;11.764;2023-04-24T03:43:42;4.10;;;2.20;;
2173;SDS011;1093;51.424;11.764;2023-04-24T03:46:09;3.50;;;2.03;;
2173;SDS011;1093;51.424;11.764;2023-04-24T03:48:36;2.17;;;2.03;;
2173;SDS011;1093;51.424;11.764;2023-04-24T03:51:03;3.00;;;2.00;;
2173;SDS011;1093;51.424;11.764;2023-04-24T03:53:29;2.00;;;1.80;;
2173;SDS011;1093;51.424;11.764;2023-04-24T03:55:56;3.03;;;1.70;;
2173;SDS011;1093;51.424;11.764;2023-04-24T03:58:24;1.90;;;1.80;;
2173;SDS011;1093;51.424;11.764;2023-04-24T04:00:51;2.70;;;2.10;;
2173;SDS011;1093;51.424;11.764;2023-04-24T04:03:18;3.40;;;2.33;;
2173;SDS011;1093;51.424;11.764;2023-04-24T04:05:45;2.63;;;2.23;;
2173;SDS011;1093;51.424;11.764;2023-04-24T04:08:12;6.57;;;2.00;;
2173;SDS011;1093;51.424;11.764;2023-04-24T04:10:39;2.50;;;2.30;;
2173;SDS011;1093;51.424;11.764;2023-04-24T04:13:05;2.10;;;1.87;;
2173;SDS011;1093;51.424;11.764;2023-04-24T04:15:33;2.30;;;2.10;;
2173;SDS011;1093;51.424;11.764;2023-04-24T04:18:00;2.20;;;2.00;;
2173;SDS011;1093;51.424;11.764;2023-04-24T04:20:27;3.13;;;2.20;;
2173;SDS011;1093;51.424;11.764;2023-04-24T04:22:54;2.77;;;2.57;;
2173;SDS011;1093;51.424;11.764;2023-04-24T04:25:21;4.30;;;2.10;;
2173;SDS011;1093;51.424;11.764;2023-04-24T04:27:48;2.93;;;2.27;;
2173;SDS011;1093;51.424;11.764;2023-04-24T04:30:16;3.37;;;2.40;;
2173;SDS011;1093;51.424;11.764;2023-04-24T04:32:44;2.60;;;2.30;;
2173;SDS011;1093;51.424;11.764;2023-04-24T04:35:11;2.77;;;2.57;;
2173;SDS011;1093;51.424;11.764;2023-04-24T04:37:38;2.77;;;2.57;;
2173;SDS011;1093;51.424;11.764;2023-04-24T04:40:05;3.00;;;2.60;;
2173;SDS011;1093;51.424;11.764;2023-04-24T04:42:36;3.40;;;2.27;;
2173;SDS011;1093;51.424;11.764;2023-04-24T04:45:05;2.90;;;2.70;;
2173;SDS011;1093;51.424;11.764;2023-04-24T04:47:33;2.67;;;2.47;;
2173;SDS011;1093;51.424;11.764;2023-04-24T04:50:02;4.03;;;3.00;;
2173;SDS011;1093;51.424;11.764;2023-04-24T04:52:30;6.13;;;2.90;;
2173;SDS011;1093;51.424;11.764;2023-04-24T04:54:57;3.30;;;2.83;;
2173;SDS011;1093;51.424;11.764;2023-04-24T04:57:24;2.67;;;2.47;;
2173;SDS011;1093;51.424;11.764;2023-04-24T04:59:50;2.30;;;2.20;;
2173;SDS011;1093;51.424;11.764;2023-04-24T05:02:17;2.63;;;2.43;;
2173;SDS011;1093;51.424;11.764;2023-04-24T05:04:44;3.30;;;2.33;;
2173;SDS011;1093;51.424;11.764;2023-04-24T05:07:12;3.60;;;3.30;;
2173;SDS011;1093;51.424;11.764;2023-04-24T05:09:39;2.87;;;2.60;;
2173;SDS011;1093;51.424;11.764;2023-04-24T05:12:05;2.67;;;2.47;;
2173;SDS011;1093;51.424;11.764;2023-04-24T05:14:32;2.90;;;2.60;;
2173;SDS011;1093;51.424;11.764;2023-04-24T05:16:59;2.47;;;2.27;;
2173;SDS011;1093;51.424;11.764;2023-04-24T05:19:26;2.87;;;2.33;;
2173;SDS011;1093;51.424;11.764;2023-04-24T05:21:53;2.70;;;2.50;;
2173;SDS011;1093;51.424;11.764;2023-04-24T05:24:21;2.20;;;2.10;;
2173;SDS011;1093;51.424;11.764;2023-04-24T05:26:48;3.40;;;3.10;;
2173;SDS011;1093;51.424;11.764;2023-04-24T05:29:15;2.70;;;2.50;;
2173;SDS011;1093;51.424;11.764;2023-04-24T05:31:44;3.27;;;2.83;;
2173;SDS011;1093;51.424;11.764;2023-04-24T05:34:10;3.03;;;2.80;;
2173;SDS011;1093;51.424;11.764;2023-04-24T05:36:37;3.97;;;2.60;;
2173;SDS011;1093;51.424;11.764;2023-04-24T05:39:04;3.00;;;2.80;;
2173;SDS011;1093;51.424;11.764;2023-04-24T05:41:32;3.00;;;2.70;;
2173;SDS011;1093;51.424;11.764;2023-04-24T05:43:59;3.17;;;2.60;;
2173;SDS011;1093;51.424;11.764;2023-04-24T05:46:25;2.93;;;2.67;;
2173;SDS011;1093;51.424;11.764;2023-04-24T05:48:52;4.37;;;2.53;;
2173;SDS011;1093;51.424;11.764;2023-04-24T05:51:19;3.93;;;2.40;;
2173;SDS011;1093;51.424;11.764;2023-04-24T05:53:45;3.03;;;2.00;;
2173;SDS011;1093;51.424;11.764;2023-04-24T05:56:12;3.50;;;2.10;;
2173;SDS011;1093;51.424;11.764;2023-04-24T05:58:40;2.67;;;2.40;;
2173;SDS011;1093;51.424;11.764;2023-04-24T06:01:07;2.70;;;2.50;;
2173;SDS011;1093;51.424;11.764;2023-04-24T06:03:34;2.80;;;2.20;;
2173;SDS011;1093;51.424;11.764;2023-04-24T06:06:01;3.27;;;2.10;;
2173;SDS011;1093;51.424;11.764;2023-04-24T06:08:30;5.57;;;2.23;;
2173;SDS011;1093;51.424;11.764;2023-04-24T06:10:58;3.00;;;2.03;;
2173;SDS011;1093;51.424;11.764;2023-04-24T06:13:25;2.07;;;1.90;;
2173;SDS011;1093;51.424;11.764;2023-04-24T06:15:53;2.33;;;2.13;;
2173;SDS011;1093;51.424;11.764;2023-04-24T06:18:20;3.20;;;2.13;;
2173;SDS011;1093;51.424;11.764;2023-04-24T06:20:47;2.90;;;1.83;;
2173;SDS011;1093;51.424;11.764;2023-04-24T06:23:14;2.20;;;2.00;;
2173;SDS011;1093;51.424;11.764;2023-04-24T06:25:41;2.20;;;1.97;;
2173;SDS011;1093;51.424;11.764;2023-04-24T06:28:08;2.40;;;2.20;;
2173;SDS011;1093;51.424;11.764;2023-04-24T06:30:34;2.60;;;2.00;;
2173;SDS011;1093;51.424;11.764;2023-04-24T06:33:03;2.70;;;2.00;;
2173;SDS011;1093;51.424;11.764;2023-04-24T06:35:30;2.60;;;2.40;;
2173;SDS011;1093;51.424;11.764;2023-04-24T06:37:56;2.70;;;2.17;;
2173;SDS011;1093;51.424;11.764;2023-04-24T06:40:23;2.37;;;2.17;;
2173;SDS011;1093;51.424;11.764;2023-04-24T06:42:50;2.60;;;2.03;;
2173;SDS011;1093;51.424;11.764;2023-04-24T06:45:17;3.93;;;1.97;;
2173;SDS011;1093;51.424;11.764;2023-04-24T06:47:44;1.97;;;1.87;;
2173;SDS011;1093;51.424;11.764;2023-04-24T06:50:12;2.93;;;2.60;;
2173;SDS011;1093;51.424;11.764;2023-04-24T06:52:38;1.83;;;1.73;;
2173;SDS011;1093;51.424;11.764;2023-04-24T06:55:07;2.93;;;2.67;;
2173;SDS011;1093;51.424;11.764;2023-04-24T06:57:35;3.00;;;1.80;;
2173;SDS011;1093;51.424;11.764;2023-04-24T07:00:02;3.17;;;2.13;;
2173;SDS011;1093;51.424;11.764;2023-04-24T07:02:30;4.17;;;2.00;;
2173;SDS011;1093;51.424;11.764;2023-04-24T07:04:56;3.30;;;2.20;;
2173;SDS011;1093;51.424;11.764;2023-04-24T07:07:24;2.10;;;1.70;;
2173;SDS011;1093;51.424;11.764;2023-04-24T07:09:51;2.57;;;2.23;;
2173;SDS011;1093;51.424;11.764;2023-04-24T07:12:19;2.87;;;1.70;;
2173;SDS011;1093;51.424;11.764;2023-04-24T07:14:46;2.60;;;1.90;;
2173;SDS011;1093;51.424;11.764;2023-04-24T07:17:13;2.07;;;1.67;;
2173;SDS011;1093;51.424;11.764;2023-04-24T07:19:40;2.60;;;2.40;;
2173;SDS011;1093;51.424;11.764;2023-04-24T07:22:07;6.40;;;2.53;;
2173;SDS011;1093;51.424;11.764;2023-04-24T07:24:35;1.60;;;1.23;;
2173;SDS011;1093;51.424;11.764;2023-04-24T07:27:02;5.33;;;2.50;;
2173;SDS011;1093;51.424;11.764;2023-04-24T07:29:29;2.10;;;1.80;;
2173;SDS011;1093;51.424;11.764;2023-04-24T07:31:55;2.47;;;2.10;;
2173;SDS011;1093;51.424;11.764;2023-04-24T07:34:22;2.27;;;1.90;;
2173;SDS011;1093;51.424;11.764;2023-04-24T07:36:49;1.63;;;1.53;;
2173;SDS011;1093;51.424;11.764;2023-04-24T07:39:16;2.90;;;1.40;;
2173;SDS011;1093;51.424;11.764;2023-04-24T07:41:44;1.47;;;1.27;;
2173;SDS011;1093;51.424;11.764;2023-04-24T07:44:10;2.00;;;1.53;;
2173;SDS011;1093;51.424;11.764;2023-04-24T07:46:37;1.63;;;1.53;;
2173;SDS011;1093;51.424;11.764;2023-04-24T07:49:04;1.80;;;1.53;;
2173;SDS011;1093;51.424;11.764;2023-04-24T07:51:30;2.20;;;1.50;;
2173;SDS011;1093;51.424;11.764;2023-04-24T07:53:58;4.67;;;1.60;;
2173;SDS011;1093;51.424;11.764;2023-04-24T07:56:25;2.30;;;1.60;;
2173;SDS011;1093;51.424;11.764;2023-04-24T07:58:53;2.30;;;1.73;;
2173;SDS011;1093;51.424;11.764;2023-04-24T08:01:20;2.80;;;2.20;;
2173;SDS011;1093;51.424;11.764;2023-04-24T08:03:47;2.33;;;1.67;;
2173;SDS011;1093;51.424;11.764;2023-04-24T08:06:13;2.30;;;1.80;;
2173;SDS011;1093;51.424;11.764;2023-04-24T08:08:40;2.17;;;2.07;;
2173;SDS011;1093;51.424;11.764;2023-04-24T08:11:07;1.57;;;1.40;;
2173;SDS011;1093;51.424;11.764;2023-04-24T08:13:33;1.33;;;1.23;;
2173;SDS011;1093;51.424;11.764;2023-04-24T08:16:01;2.43;;;2.10;;
2173;SDS011;1093;51.424;11.764;2023-04-24T08:18:28;4.03;;;2.00;;
2173;SDS011;1093;51.424;11.764;2023-04-24T08:20:55;1.70;;;1.60;;
2173;SDS011;1093;51.424;11.764;2023-04-24T08:23:26;1.63;;;1.53;;
2173;SDS011;1093;51.424;11.764;2023-04-24T08:25:53;1.37;;;1.27;;
2173;SDS011;1093;51.424;11.764;2023-04-24T08:28:20;3.50;;;1.60;;
2173;SDS011;1093;51.424;11.764;2023-04-24T08:30:47;1.83;;;1.73;;
2173;SDS011;1093;51.424;11.764;2023-04-24T08:33:20;2.07;;;1.87;;
2173;SDS011;1093;51.424;11.764;2023-04-24T08:35:47;5.03;;;2.40;;
2173;SDS011;1093;51.424;11.764;2023-04-24T08:38:14;2.43;;;1.53;;
2173;SDS011;1093;51.424;11.764;2023-04-24T08:40:41;1.83;;;1.30;;
2173;SDS011;1093;51.424;11.764;2023-04-24T08:43:10;5.97;;;1.80;;
2173;SDS011;1093;51.424;11.764;2023-04-24T08:45:38;2.30;;;1.50;;
2173;SDS011;1093;51.424;11.764;2023-04-24T08:48:06;3.23;;;1.83;;
2173;SDS011;1093;51.424;11.764;2023-04-24T08:50:35;1.60;;;1.50;;
2173;SDS011;1093;51.424;11.764;2023-04-24T08:53:02;6.53;;;1.43;;
2173;SDS011;1093;51.424;11.764;2023-04-24T08:55:30;2.67;;;1.53;;
2173;SDS011;1093;51.424;11.764;2023-04-24T08:57:59;2.10;;;1.47;;
2173;SDS011;1093;51.424;11.764;2023-04-24T09:00:28;1.93;;;1.30;;
2173;SDS011;1093;51.424;11.764;2023-04-24T09:02:55;4.33;;;1.50;;
2173;SDS011;1093;51.424;11.764;2023-04-24T09:05:22;2.00;;;1.90;;
2173;SDS011;1093;51.424;11.764;2023-04-24T09:07:53;5.60;;;2.20;;
2173;SDS011;1093;51.424;11.764;2023-04-24T09:10:21;2.47;;;1.90;;
2173;SDS011;1093;51.424;11.764;2023-04-24T09:12:50;2.97;;;2.03;;
2173;SDS011;1093;51.424;11.764;2023-04-24T09:15:17;3.03;;;2.07;;
2173;SDS011;1093;51.424;11.764;2023-04-24T09:17:45;2.80;;;1.90;;
2173;SDS011;1093;51.424;11.764;2023-04-24T09:20:12;2.50;;;1.17;;
2173;SDS011;1093;51.424;11.764;2023-04-24T09:22:39;2.13;;;1.80;;
2173;SDS011;1093;51.424;11.764;2023-04-24T09:25:07;1.73;;;1.50;;
2173;SDS011;1093;51.424;11.764;2023-04-24T09:27:37;2.17;;;1.97;;
2173;SDS011;1093;51.424;11.764;2023-04-24T09:30:09;1.70;;;1.60;;
2173;SDS011;1093;51.424;11.764;2023-04-24T09:32:36;3.20;;;1.50;;
2173;SDS011;1093;51.424;11.764;2023-04-24T09:35:07;2.90;;;1.57;;
2173;SDS011;1093;51.424;11.764;2023-04-24T09:37:36;2.63;;;1.83;;
2173;SDS011;1093;51.424;11.764;2023-04-24T09:40:12;1.67;;;1.57;;
2173;SDS011;1093;51.424;11.764;2023-04-24T09:42:43;1.73;;;1.63;;
2173;SDS011;1093;51.424;11.764;2023-04-24T09:45:11;3.33;;;1.83;;
2173;SDS011;1093;51.424;11.764;2023-04-24T09:47:38;2.30;;;2.10;;
2173;SDS011;1093;51.424;11.764;2023-04-24T09:50:12;2.40;;;2.00;;
2173;SDS011;1093;51.424;11.764;2023-04-24T09:52:40;2.53;;;1.33;;
2173;SDS011;1093;51.424;11.764;2023-04-24T09:55:16;2.70;;;1.80;;
2173;SDS011;1093;51.424;11.764;2023-04-24T09:57:52;2.20;;;1.63;;
2173;SDS011;1093;51.424;11.764;2023-04-24T10:00:23;9.70;;;1.80;;
2173;SDS011;1093;51.424;11.764;2023-04-24T10:02:58;2.10;;;1.57;;
2173;SDS011;1093;51.424;11.764;2023-04-24T10:05:29;2.77;;;1.70;;
2173;SDS011;1093;51.424;11.764;2023-04-24T10:07:57;1.90;;;1.60;;
2173;SDS011;1093;51.424;11.764;2023-04-24T10:10:28;2.70;;;1.70;;
2173;SDS011;1093;51.424;11.764;2023-04-24T10:12:55;3.50;;;2.43;;
2173;SDS011;1093;51.424;11.764;2023-04-24T10:15:22;2.33;;;1.97;;
2173;SDS011;1093;51.424;11.764;2023-04-24T10:17:50;1.87;;;1.63;;
2173;SDS011;1093;51.424;11.764;2023-04-24T10:20:19;3.23;;;1.73;;
2173;SDS011;1093;51.424;11.764;2023-04-24T10:22:47;2.80;;;1.80;;
2173;SDS011;1093;51.424;11.764;2023-04-24T10:25:16;3.03;;;2.33;;
2173;SDS011;1093;51.424;11.764;2023-04-24T10:27:46;3.43;;;2.20;;
2173;SDS011;1093;51.424;11.764;2023-04-24T10:30:14;8.33;;;2.20;;
2173;SDS011;1093;51.424;11.764;2023-04-24T10:32:41;2.90;;;1.70;;
2173;SDS011;1093;51.424;11.764;2023-04-24T10:35:08;1.73;;;1.57;;
2173;SDS011;1093;51.424;11.764;2023-04-24T10:37:37;3.30;;;2.17;;
2173;SDS011;1093;51.424;11.764;2023-04-24T10:40:06;2.60;;;2.23;;
2173;SDS011;1093;51.424;11.764;2023-04-24T10:42:34;1.50;;;1.40;;
2173;SDS011;1093;51.424;11.764;2023-04-24T10:45:07;1.47;;;1.37;;
2173;SDS011;1093;51.424;11.764;2023-04-24T10:47:43;1.87;;;1.77;;
2173;SDS011;1093;51.424;11.764;2023-04-24T10:50:17;4.57;;;1.97;;
2173;SDS011;1093;51.424;11.764;2023-04-24T10:52:44;3.13;;;1.87;;
2173;SDS011;1093;51.424;11.764;2023-04-24T10:55:12;1.60;;;1.50;;
2173;SDS011;1093;51.424;11.764;2023-04-24T10:57:39;2.97;;;2.00;;
2173;SDS011;1093;51.424;11.764;2023-04-24T11:00:31;3.33;;;1.80;;
2173;SDS011;1093;51.424;11.764;2023-04-24T11:02:58;2.40;;;2.20;;
2173;SDS011;1093;51.424;11.764;2023-04-24T11:08:21;2.37;;;2.17;;
2173;SDS011;1093;51.424;11.764;2023-04-24T11:10:56;1.63;;;1.53;;
2173;SDS011;1093;51.424;11.764;2023-04-24T11:13:25;2.20;;;1.80;;
2173;SDS011;1093;51.424;11.764;2023-04-24T11:16:13;2.03;;;1.93;;
2173;SDS011;1093;51.424;11.764;2023-04-24T11:18:41;1.87;;;1.73;;
2173;SDS011;1093;51.424;11.764;2023-04-24T11:21:11;2.33;;;1.80;;
2173;SDS011;1093;51.424;11.764;2023-04-24T11:23:38;2.50;;;1.60;;
2173;SDS011;1093;51.424;11.764;2023-04-24T11:26:11;2.53;;;1.40;;
2173;SDS011;1093;51.424;11.764;2023-04-24T11:28:46;4.10;;;2.30;;
2173;SDS011;1093;51.424;11.764;2023-04-24T11:34:07;3.47;;;2.23;;
2173;SDS011;1093;51.424;11.764;2023-04-24T11:36:35;3.00;;;2.70;;
2173;SDS011;1093;51.424;11.764;2023-04-24T11:39:02;3.23;;;2.83;;
2173;SDS011;1093;51.424;11.764;2023-04-24T11:41:29;3.50;;;2.03;;
2173;SDS011;1093;51.424;11.764;2023-04-24T11:43:56;6.60;;;2.37;;
2173;SDS011;1093;51.424;11.764;2023-04-24T11:46:26;5.00;;;2.50;;
2173;SDS011;1093;51.424;11.764;2023-04-24T11:48:55;7.53;;;2.63;;
2173;SDS011;1093;51.424;11.764;2023-04-24T11:51:22;6.90;;;3.43;;
2173;SDS011;1093;51.424;11.764;2023-04-24T11:53:50;5.30;;;3.20;;
2173;SDS011;1093;51.424;11.764;2023-04-24T11:56:17;3.47;;;2.67;;
2173;SDS011;1093;51.424;11.764;2023-04-24T11:58:45;2.57;;;2.37;;
2173;SDS011;1093;51.424;11.764;2023-04-24T12:01:12;5.33;;;3.57;;
2173;SDS011;1093;51.424;11.764;2023-04-24T12:03:38;20.27;;;3.77;;
2173;SDS011;1093;51.424;11.764;2023-04-24T12:06:10;10.03;;;2.80;;
2173;SDS011;1093;51.424;11.764;2023-04-24T12:08:37;4.37;;;2.00;;
2173;SDS011;1093;51.424;11.764;2023-04-24T12:11:04;5.20;;;2.30;;
2173;SDS011;1093;51.424;11.764;2023-04-24T12:13:33;4.30;;;2.50;;
2173;SDS011;1093;51.424;11.764;2023-04-24T12:16:01;4.77;;;2.67;;
2173;SDS011;1093;51.424;11.764;2023-04-24T12:18:29;10.80;;;2.70;;
2173;SDS011;1093;51.424;11.764;2023-04-24T12:21:01;4.80;;;2.70;;
2173;SDS011;1093;51.424;11.764;2023-04-24T12:23:42;6.57;;;2.63;;
2173;SDS011;1093;51.424;11.764;2023-04-24T12:26:09;4.73;;;2.70;;
2173;SDS011;1093;51.424;11.764;2023-04-24T12:28:36;10.53;;;3.30;;
2173;SDS011;1093;51.424;11.764;2023-04-24T12:31:04;2.90;;;2.47;;
2173;SDS011;1093;51.424;11.764;2023-04-24T12:33:33;3.77;;;2.30;;
2173;SDS011;1093;51.424;11.764;2023-04-24T12:36:00;8.33;;;3.20;;
2173;SDS011;1093;51.424;11.764;2023-04-24T12:38:29;3.50;;;3.20;;
2173;SDS011;1093;51.424;11.764;2023-04-24T12:41:02;6.40;;;2.80;;
2173;SDS011;1093;51.424;11.764;2023-04-24T12:43:30;2.90;;;2.40;;
2173;SDS011;1093;51.424;11.764;2023-04-24T12:45:57;2.97;;;2.60;;
2173;SDS011;1093;51.424;11.764;2023-04-24T12:48:24;3.97;;;2.13;;
2173;SDS011;1093;51.424;11.764;2023-04-24T12:50:51;2.63;;;2.30;;
2173;SDS011;1093;51.424;11.764;2023-04-24T12:53:17;2.60;;;2.00;;
2173;SDS011;1093;51.424;11.764;2023-04-24T12:55:46;2.23;;;2.03;;
2173;SDS011;1093;51.424;11.764;2023-04-24T12:58:17;2.53;;;2.33;;
2173;SDS011;1093;51.424;11.764;2023-04-24T13:00:45;4.30;;;3.10;;
2173;SDS011;1093;51.424;11.764;2023-04-24T13:03:12;3.60;;;2.60;;
2173;SDS011;1093;51.424;11.764;2023-04-24T13:05:39;3.80;;;2.60;;
2173;SDS011;1093;51.424;11.764;2023-04-24T13:08:06;3.60;;;2.30;;
2173;SDS011;1093;51.424;11.764;2023-04-24T13:10:33;3.90;;;2.40;;
2173;SDS011;1093;51.424;11.764;2023-04-24T13:13:01;12.13;;;2.40;;
2173;SDS011;1093;51.424;11.764;2023-04-24T13:15:29;6.20;;;2.40;;
2173;SDS011;1093;51.424;11.764;2023-04-24T13:17:56;4.10;;;2.30;;
2173;SDS011;1093;51.424;11.764;2023-04-24T13:20:23;5.70;;;2.00;;
2173;SDS011;1093;51.424;11.764;2023-04-24T13:22:49;2.10;;;1.97;;
2173;SDS011;1093;51.424;11.764;2023-04-24T13:25:16;2.20;;;1.93;;
2173;SDS011;1093;51.424;11.764;2023-04-24T13:27:44;4.93;;;2.37;;
2173;SDS011;1093;51.424;11.764;2023-04-24T13:30:12;4.20;;;2.30;;
2173;SDS011;1093;51.424;11.764;2023-04-24T13:32:39;3.40;;;2.20;;
2173;SDS011;1093;51.424;11.764;2023-04-24T13:35:06;3.53;;;2.50;;
2173;SDS011;1093;51.424;11.764;2023-04-24T13:37:33;4.53;;;2.87;;
2173;SDS011;1093;51.424;11.764;2023-04-24T13:40:00;4.23;;;1.97;;
2173;SDS011;1093;51.424;11.764;2023-04-24T13:42:27;3.00;;;2.03;;
2173;SDS011;1093;51.424;11.764;2023-04-24T13:44:53;2.40;;;2.20;;
2173;SDS011;1093;51.424;11.764;2023-04-24T13:47:21;4.90;;;2.30;;
2173;SDS011;1093;51.424;11.764;2023-04-24T13:49:48;4.63;;;2.10;;
2173;SDS011;1093;51.424;11.764;2023-04-24T13:52:15;2.30;;;2.10;;
2173;SDS011;1093;51.424;11.764;2023-04-24T13:54:42;3.90;;;2.10;;
2173;SDS011;1093;51.424;11.764;2023-04-24T13:57:08;1.97;;;1.63;;
2173;SDS011;1093;51.424;11.764;2023-04-24T13:59:35;2.50;;;1.70;;
2173;SDS011;1093;51.424;11.764;2023-04-24T14:02:02;4.93;;;1.40;;
2173;SDS011;1093;51.424;11.764;2023-04-24T14:04:30;3.47;;;1.40;;
2173;SDS011;1093;51.424;11.764;2023-04-24T14:06:56;1.40;;;1.30;;
2173;SDS011;1093;51.424;11.764;2023-04-24T14:09:23;5.57;;;1.33;;
2173;SDS011;1093;51.424;11.764;2023-04-24T14:11:51;1.70;;;1.60;;
2173;SDS011;1093;51.424;11.764;2023-04-24T14:14:18;6.90;;;1.90;;
2173;SDS011;1093;51.424;11.764;2023-04-24T14:16:44;1.37;;;1.00;;
2173;SDS011;1093;51.424;11.764;2023-04-24T14:19:12;4.03;;;1.53;;
2173;SDS011;1093;51.424;11.764;2023-04-24T14:21:40;1.20;;;1.10;;
2173;SDS011;1093;51.424;11.764;2023-04-24T14:24:07;1.33;;;1.20;;
2173;SDS011;1093;51.424;11.764;2023-04-24T14:26:34;1.53;;;1.23;;
2173;SDS011;1093;51.424;11.764;2023-04-24T14:29:01;1.47;;;1.13;;
2173;SDS011;1093;51.424;11.764;2023-04-24T14:31:28;4.10;;;1.77;;
2173;SDS011;1093;51.424;11.764;2023-04-24T14:33:56;3.00;;;1.13;;
2173;SDS011;1093;51.424;11.764;2023-04-24T14:36:23;3.37;;;1.10;;
2173;SDS011;1093;51.424;11.764;2023-04-24T14:38:51;1.50;;;1.20;;
2173;SDS011;1093;51.424;11.764;2023-04-24T14:41:18;1.47;;;1.00;;
2173;SDS011;1093;51.424;11.764;2023-04-24T14:43:45;1.93;;;1.00;;
2173;SDS011;1093;51.424;11.764;2023-04-24T14:46:11;2.17;;;1.00;;
2173;SDS011;1093;51.424;11.764;2023-04-24T14:48:38;2.13;;;0.83;;
2173;SDS011;1093;51.424;11.764;2023-04-24T14:51:05;2.03;;;1.00;;
2173;SDS011;1093;51.424;11.764;2023-04-24T14:53:32;3.93;;;0.83;;
2173;SDS011;1093;51.424;11.764;2023-04-24T14:56:01;4.60;;;1.10;;
2173;SDS011;1093;51.424;11.764;2023-04-24T14:58:28;1.37;;;0.80;;
2173;SDS011;1093;51.424;11.764;2023-04-24T15:00:55;7.00;;;1.50;;
2173;SDS011;1093;51.424;11.764;2023-04-24T15:03:22;12.63;;;1.63;;
2173;SDS011;1093;51.424;11.764;2023-04-24T15:05:49;5.23;;;1.33;;
2173;SDS011;1093;51.424;11.764;2023-04-24T15:08:16;0.80;;;0.70;;